Vienna, SD (57271)

7:59 PM CST on February 22, 2017 (GMT -0600)
West of Watertown | | Change Station
Active Advisory: Winter Storm Watch

Elev 1765 ft 44.88 °N, 97.29 °W | Updated 5 seconds ago

Overcast
Overcast
31.5 °F
Feels Like 25 °F
N
7.0
Wind Variable Wind from NNE

Today
High -- | Low -- °F
--% Chance of Precip.
Yesterday
High -- | Low -- °F
Precip. -- in
Pressure 29.88 in
Visibility 10.0 miles
Clouds Overcast 900 ft
Windchill 25 °F
Dew Point 29 °F
Humidity 93%
Rainfall 0.02 in
Snow Depth Not available.
7:18 AM 6:08 PM
Waning Crescent, 13% visible
METAR KATY 230153Z AUTO 35014KT 10SM OVC009 00/M02 A2984 RMK AO2 SLP118 T00001017
Pressure 29.88 in
Visibility 10.0 miles
Clouds Overcast 900 ft
Windchill 25 °F
Dew Point 29 °F
Humidity 93%
Rainfall 0.02 in
Snow Depth Not available.
7:18 AM 6:08 PM
Waning Crescent, 13% visible
METAR KATY 230153Z AUTO 35014KT 10SM OVC009 00/M02 A2984 RMK AO2 SLP118 T00001017

Get Your Daily Forecast Email!

Thanks for signing up!

Be on the lookout for a verification email in your inbox.

You'll start receiving the daily forecast at 8 AM.

×

10-Day Weather Forecast

Almanac

Astronomy

Feb. 22, 2017 Rise Set
Actual Time
Civil Twilight
Nautical Twilight
Astronomical Twilight
Moon
Length of Visible Light
Length of Day
Tomorrow will be .
, % of the Moon is Illuminated

Today's Extremes

State Highs State Lows

Community

WunderPhotos

Upload Photos

1,962,540 photos uploaded!

WunderBlog® & News

Nearby

Air Quality

  Air Quality AQ Index Pollutant
Not available.

Snow Depth

Station Depth Elevation

Earthquake Activity

City Distance Mag. Time & Date
Minimum magnitude displayed is 2.5.

Coastal Water Temperatures

Place Temperature

Stations

Nearby Weather Stations

Station Location Temp. Windchill Dew Point Humidity Wind Precip. Elev Updated Type
                   

Watches & Warnings

Winter Storm Watch
Issued: 3:20 PM CST Feb. 22, 2017 – National Weather Service

... Winter Storm Watch remains in effect from Thursday evening
through Friday afternoon...

* timing... snow is possible from Thursday evening through Friday
afternoon.

* Snow accumulations... total snow accumulations of 2 to 5 inches
are possible.

* Winds / visibilities... winds gusting as high as 45 mph could
cause widespread blowing and drifting snow. In
addition... significant reductions in visibility are possible.
Tree branches could fall as well.

* Impacts... plan on difficult driving conditions... including
during the morning commute on Friday.

Precautionary/preparedness actions...

A Winter Storm Watch means there is potential for significant
snow... sleet or ice accumulations that may impact travel.
Continue to monitor the latest forecasts.


Tmt